Time;durP1;ratioP1;P1;durP2;ratioP2;P2;SDS_P1;SDS_P2;PMS_P1;PMS_P2;Temp;Humidity;BMP_temperature;BMP_pressure;BME280_temperature;BME280_humidity;BME280_pressure;Samples;Min_cycle;Max_cycle;Signal;HPM_P1;HPM_P2
2020/12/31 00:01:32;;;;;;;11.55;10.65;;;0.10;79.50;;;;;;5121066;28;20421;-70
2020/12/31 00:04:03;;;;;;;11.88;10.98;;;0.10;79.20;;;;;;5122753;28;20044;-71
2020/12/31 00:06:35;;;;;;;11.63;10.63;;;0.10;79.50;;;;;;5123344;28;20042;-70
2020/12/31 00:09:06;;;;;;;11.55;10.57;;;0.10;79.30;;;;;;5122157;28;20059;-71
2020/12/31 00:11:38;;;;;;;12.48;11.32;;;0.10;79.10;;;;;;5120718;28;20039;-70
2020/12/31 00:14:10;;;;;;;11.80;10.90;;;0.10;79.30;;;;;;5122754;28;20049;-71
2020/12/31 00:16:41;;;;;;;12.63;11.63;;;0.10;79.40;;;;;;5086447;28;20106;-70
2020/12/31 00:19:13;;;;;;;11.77;10.80;;;0.10;79.60;;;;;;5084394;28;20059;-71
2020/12/31 00:21:45;;;;;;;12.45;11.52;;;0.00;79.80;;;;;;5123301;28;20043;-71
2020/12/31 00:24:17;;;;;;;12.13;11.23;;;0.00;80.10;;;;;;5088735;28;20043;-71
2020/12/31 00:26:48;;;;;;;12.32;11.32;;;0.00;80.40;;;;;;5103029;28;20059;-71
2020/12/31 00:29:20;;;;;;;12.27;11.27;;;-0.10;80.60;;;;;;5101656;28;20429;-70
2020/12/31 00:31:51;;;;;;;12.27;11.18;;;-0.10;80.80;;;;;;5121789;28;20050;-71
2020/12/31 00:34:23;;;;;;;12.15;11.25;;;-0.20;80.70;;;;;;5123342;28;20097;-71
2020/12/31 00:36:54;;;;;;;12.20;11.27;;;-0.20;80.80;;;;;;5118341;28;20079;-70
2020/12/31 00:39:26;;;;;;;11.30;10.48;;;-0.20;81.10;;;;;;5122061;28;20127;-70
2020/12/31 00:41:57;;;;;;;12.15;11.20;;;-0.10;81.20;;;;;;5124261;28;20490;-71
2020/12/31 00:44:29;;;;;;;11.63;10.73;;;-0.10;80.90;;;;;;5121720;28;20034;-70
2020/12/31 00:47:01;;;;;;;11.82;10.93;;;-0.10;81.00;;;;;;5121943;28;20051;-71
2020/12/31 00:49:32;;;;;;;11.82;10.80;;;0.00;80.90;;;;;;5108065;28;20043;-69
2020/12/31 00:52:04;;;;;;;11.57;10.68;;;0.00;80.60;;;;;;5086790;28;20630;-70
2020/12/31 00:54:39;;;;;;;11.88;10.98;;;0.10;80.80;;;;;;5103071;28;20043;-69
2020/12/31 00:57:12;;;;;;;11.48;10.68;;;0.10;81.00;;;;;;5112044;28;20062;-69
2020/12/31 00:59:44;;;;;;;11.25;10.38;;;0.10;80.60;;;;;;5104761;28;20047;-69
2020/12/31 01:02:16;;;;;;;11.90;11.00;;;0.10;80.40;;;;;;5103915;28;20055;-70
2020/12/31 01:04:47;;;;;;;11.38;10.48;;;0.10;80.20;;;;;;5099466;28;20051;-70
2020/12/31 01:07:19;;;;;;;11.50;10.50;;;0.10;80.00;;;;;;5122783;28;20043;-68
2020/12/31 01:09:50;;;;;;;11.70;10.80;;;0.20;79.80;;;;;;5119345;28;20073;-70
2020/12/31 01:12:21;;;;;;;11.50;10.70;;;0.10;79.70;;;;;;5118716;28;20067;-70
2020/12/31 01:14:53;;;;;;;11.68;10.70;;;0.10;78.50;;;;;;5103281;29;20414;-70
2020/12/31 01:17:25;;;;;;;11.85;10.88;;;0.10;79.10;;;;;;5116173;28;20059;-70
2020/12/31 01:19:57;;;;;;;11.93;11.02;;;0.10;78.40;;;;;;5118642;28;20047;-71
2020/12/31 01:22:28;;;;;;;11.98;11.02;;;0.10;78.10;;;;;;5104406;28;20048;-70
2020/12/31 01:25:00;;;;;;;11.48;10.63;;;0.00;77.40;;;;;;5115052;28;20047;-70
2020/12/31 01:27:32;;;;;;;11.93;11.02;;;-0.10;77.10;;;;;;5138749;28;20129;-70
2020/12/31 01:30:04;;;;;;;11.93;11.02;;;-0.20;77.40;;;;;;5119863;28;20073;-69
2020/12/31 01:32:36;;;;;;;11.75;10.85;;;-0.20;77.40;;;;;;5138189;28;20054;-69
2020/12/31 01:35:08;;;;;;;11.73;10.82;;;-0.20;77.10;;;;;;5136836;28;20085;-69
2020/12/31 01:37:39;;;;;;;12.02;11.02;;;-0.30;78.00;;;;;;5138736;28;20046;-69
2020/12/31 01:40:11;;;;;;;11.90;10.80;;;-0.40;77.90;;;;;;5138859;28;20051;-69
2020/12/31 01:42:43;;;;;;;12.30;11.32;;;-0.40;77.70;;;;;;5141330;28;20643;-69
2020/12/31 01:45:14;;;;;;;12.00;11.10;;;-0.50;77.00;;;;;;5136275;28;20122;-69
2020/12/31 01:47:46;;;;;;;12.13;11.13;;;-0.60;77.50;;;;;;5120062;28;20122;-69
2020/12/31 01:50:18;;;;;;;12.60;11.50;;;-0.70;78.00;;;;;;5118078;28;20051;-68
2020/12/31 01:52:49;;;;;;;12.50;11.50;;;-0.70;78.70;;;;;;5119911;28;20051;-70
2020/12/31 01:55:21;;;;;;;12.60;11.60;;;-0.70;78.40;;;;;;5119205;28;20048;-69
2020/12/31 01:57:53;;;;;;;11.73;10.82;;;-0.60;78.90;;;;;;5101533;28;20039;-70
2020/12/31 02:00:24;;;;;;;12.45;11.48;;;-0.60;78.60;;;;;;5117503;28;20047;-69
2020/12/31 02:02:56;;;;;;;11.95;10.95;;;-0.60;78.40;;;;;;5119319;28;20105;-69
2020/12/31 02:05:27;;;;;;;11.82;10.82;;;-0.60;78.00;;;;;;5118761;28;20047;-70
2020/12/31 02:07:59;;;;;;;12.23;11.23;;;-0.60;77.90;;;;;;5119319;28;20043;-70
2020/12/31 02:10:31;;;;;;;11.50;10.60;;;-0.70;77.30;;;;;;5117490;28;20695;-70
2020/12/31 02:13:02;;;;;;;11.10;10.20;;;-0.70;77.20;;;;;;5119135;28;20070;-70
2020/12/31 02:15:34;;;;;;;11.35;10.45;;;-0.70;76.50;;;;;;5117638;28;20038;-69
2020/12/31 02:18:05;;;;;;;11.75;10.82;;;-0.80;76.50;;;;;;5099234;28;21016;-70
2020/12/31 02:20:36;;;;;;;11.25;10.45;;;-0.90;77.20;;;;;;5118160;28;20110;-70
2020/12/31 02:23:09;;;;;;;11.85;10.85;;;-1.00;77.10;;;;;;5118614;28;20034;-70
2020/12/31 02:25:40;;;;;;;11.60;10.70;;;-1.00;77.50;;;;;;5119292;28;20218;-70
2020/12/31 02:28:12;;;;;;;11.98;10.90;;;-1.10;77.60;;;;;;5119204;28;20073;-71
2020/12/31 02:30:43;;;;;;;12.00;11.10;;;-1.10;77.80;;;;;;5116658;28;20051;-70
2020/12/31 02:33:14;;;;;;;11.48;10.57;;;-1.30;77.80;;;;;;5119446;28;20075;-70
2020/12/31 02:35:46;;;;;;;11.75;10.85;;;-1.30;78.20;;;;;;5115986;28;20051;-71
2020/12/31 02:38:17;;;;;;;11.07;10.18;;;-1.40;78.20;;;;;;5117578;28;20047;-71
2020/12/31 02:40:49;;;;;;;11.52;10.63;;;-1.40;79.00;;;;;;5118020;28;20506;-70
2020/12/31 02:43:20;;;;;;;11.25;10.38;;;-1.40;78.30;;;;;;5119815;28;20119;-71
2020/12/31 02:45:52;;;;;;;11.35;10.52;;;-1.40;77.60;;;;;;5119985;28;20121;-70
2020/12/31 02:48:23;;;;;;;11.02;10.23;;;-1.40;77.90;;;;;;5120366;28;20102;-71
2020/12/31 02:50:55;;;;;;;11.35;10.50;;;-1.50;77.00;;;;;;5121451;28;20050;-71
2020/12/31 02:53:26;;;;;;;11.30;10.40;;;-1.60;77.20;;;;;;5124254;28;20398;-70
2020/12/31 02:55:58;;;;;;;11.05;10.25;;;-1.60;76.20;;;;;;5123281;28;20211;-70
2020/12/31 02:58:29;;;;;;;11.50;10.50;;;-1.70;76.50;;;;;;5124353;28;20067;-70
2020/12/31 03:01:01;;;;;;;10.90;10.10;;;-1.80;76.60;;;;;;5121844;28;20569;-70
2020/12/31 03:03:32;;;;;;;11.05;10.25;;;-1.90;76.20;;;;;;5122784;28;20102;-71
2020/12/31 03:06:04;;;;;;;11.00;10.20;;;-2.00;76.30;;;;;;5120285;28;20530;-69
2020/12/31 03:08:37;;;;;;;11.57;10.65;;;-2.10;76.60;;;;;;5122223;28;20129;-70
2020/12/31 03:11:16;;;;;;;11.10;10.20;;;-2.20;76.70;;;;;;5087992;28;20039;-70
2020/12/31 03:13:49;;;;;;;11.48;10.57;;;-2.20;77.30;;;;;;5123008;28;20043;-70
2020/12/31 03:16:21;;;;;;;10.75;9.95;;;-2.20;77.00;;;;;;5123093;28;20054;-70
2020/12/31 03:18:52;;;;;;;11.25;10.20;;;-2.30;77.60;;;;;;5122614;28;20117;-70
2020/12/31 03:21:23;;;;;;;11.07;10.25;;;-2.40;76.70;;;;;;5106156;28;20047;-69
2020/12/31 03:23:55;;;;;;;11.23;10.32;;;-2.40;77.50;;;;;;5122544;28;20467;-70
2020/12/31 03:26:26;;;;;;;11.20;10.20;;;-2.50;76.90;;;;;;5105865;28;20039;-70
2020/12/31 03:28:58;;;;;;;11.13;10.23;;;-2.50;77.50;;;;;;5073416;28;20039;-69
2020/12/31 03:31:29;;;;;;;11.20;10.02;;;-2.50;77.20;;;;;;5105014;28;20047;-71
2020/12/31 03:34:00;;;;;;;10.63;9.82;;;-2.50;76.70;;;;;;5121750;28;20450;-70
2020/12/31 03:36:32;;;;;;;10.73;9.90;;;-2.40;76.70;;;;;;5120821;28;20074;-70
2020/12/31 03:39:03;;;;;;;10.73;9.93;;;-2.40;76.50;;;;;;5123237;28;20621;-70
2020/12/31 03:41:35;;;;;;;11.10;10.15;;;-2.40;76.60;;;;;;5122573;28;20121;-70
2020/12/31 03:44:06;;;;;;;10.60;9.80;;;-2.40;76.40;;;;;;5120929;28;20126;-70
2020/12/31 03:46:38;;;;;;;10.75;9.85;;;-2.40;76.20;;;;;;5122805;28;20077;-68
2020/12/31 03:49:10;;;;;;;11.10;10.10;;;-2.40;76.50;;;;;;5120969;28;20039;-70
2020/12/31 03:51:41;;;;;;;10.10;9.30;;;-2.50;76.10;;;;;;5123030;28;20114;-70
2020/12/31 03:54:12;;;;;;;9.90;9.10;;;-2.60;74.70;;;;;;5121219;28;20084;-70
2020/12/31 03:56:44;;;;;;;10.18;9.38;;;-2.70;75.20;;;;;;5120831;28;20437;-70
2020/12/31 03:59:15;;;;;;;10.65;9.70;;;-2.70;75.10;;;;;;5123234;28;20043;-70
2020/12/31 04:01:47;;;;;;;10.15;9.30;;;-2.70;75.50;;;;;;5120554;28;20055;-71
2020/12/31 04:04:18;;;;;;;10.32;9.43;;;-2.60;75.50;;;;;;5120364;28;20094;-71
2020/12/31 04:06:50;;;;;;;10.13;9.32;;;-2.60;75.30;;;;;;5121037;28;20106;-70
2020/12/31 04:09:21;;;;;;;10.63;9.82;;;-2.60;74.90;;;;;;5122549;28;20047;-70
2020/12/31 04:11:52;;;;;;;11.23;10.23;;;-2.70;74.50;;;;;;5121884;28;20070;-69
2020/12/31 04:14:24;;;;;;;10.77;9.77;;;-2.80;74.40;;;;;;5120864;28;20043;-70
2020/12/31 04:16:56;;;;;;;10.77;9.70;;;-2.90;74.20;;;;;;5121725;28;20403;-70
2020/12/31 04:19:27;;;;;;;10.68;9.70;;;-2.90;75.60;;;;;;5120546;28;20050;-69
2020/12/31 04:21:58;;;;;;;9.90;9.10;;;-2.90;75.30;;;;;;5119609;28;20665;-70
2020/12/31 04:24:30;;;;;;;9.60;8.70;;;-2.90;74.80;;;;;;5120910;28;20050;-71
2020/12/31 04:27:02;;;;;;;9.68;8.82;;;-2.90;75.00;;;;;;5120864;28;20039;-70
2020/12/31 04:29:33;;;;;;;9.38;8.63;;;-3.00;75.00;;;;;;5121507;28;20042;-69
2020/12/31 04:32:05;;;;;;;9.27;8.57;;;-3.00;76.10;;;;;;5121354;28;20079;-71
2020/12/31 04:34:36;;;;;;;9.50;8.68;;;-3.00;75.50;;;;;;5121665;28;20054;-70
2020/12/31 04:37:08;;;;;;;10.02;9.15;;;-3.00;74.90;;;;;;5119465;28;20413;-70
2020/12/31 04:39:40;;;;;;;9.30;8.50;;;-3.00;75.30;;;;;;5120320;28;20098;-71
2020/12/31 04:42:11;;;;;;;9.13;8.30;;;-2.90;75.20;;;;;;5119971;28;20438;-71
2020/12/31 04:44:44;;;;;;;9.52;8.63;;;-3.00;73.70;;;;;;5103741;28;20039;-71
2020/12/31 04:47:20;;;;;;;9.77;8.88;;;-3.10;73.10;;;;;;5122012;28;20070;-70
2020/12/31 04:49:52;;;;;;;8.82;8.07;;;-3.10;73.30;;;;;;5120479;28;20035;-70
2020/12/31 04:52:24;;;;;;;8.73;8.02;;;-3.10;73.70;;;;;;5122192;28;20449;-71
2020/12/31 04:54:56;;;;;;;8.80;8.00;;;-3.20;73.90;;;;;;5122688;28;20564;-70
2020/12/31 04:57:27;;;;;;;8.38;7.68;;;-3.20;74.50;;;;;;5122130;28;20509;-71
2020/12/31 04:59:59;;;;;;;9.20;8.30;;;-3.30;74.10;;;;;;5106545;28;20145;-71
2020/12/31 05:02:32;;;;;;;8.88;8.13;;;-3.30;74.70;;;;;;5121214;28;20528;-71
2020/12/31 05:05:04;;;;;;;8.90;8.20;;;-3.40;75.60;;;;;;5118971;28;20441;-70
2020/12/31 05:07:36;;;;;;;9.35;8.55;;;-3.30;75.50;;;;;;5120442;28;20043;-70
2020/12/31 05:10:09;;;;;;;9.38;8.57;;;-3.30;75.40;;;;;;5120400;28;20074;-70
2020/12/31 05:12:41;;;;;;;8.75;8.00;;;-3.40;74.80;;;;;;5103146;28;20086;-70
2020/12/31 05:15:12;;;;;;;9.10;8.30;;;-3.40;75.00;;;;;;5120634;28;20074;-70
2020/12/31 05:17:44;;;;;;;8.13;7.43;;;-3.60;73.80;;;;;;5121525;28;20047;-71
2020/12/31 05:20:15;;;;;;;8.68;7.97;;;-3.60;73.20;;;;;;5120097;28;20175;-70
2020/12/31 05:22:47;;;;;;;8.52;7.82;;;-3.60;72.90;;;;;;5121064;28;20110;-70
2020/12/31 05:25:33;;;;;;;8.48;7.78;;;-3.70;73.50;;;;;;5121420;28;20091;-70
2020/12/31 05:28:30;;;;;;;8.60;7.80;;;-3.70;74.10;;;;;;5119066;28;20568;-70
2020/12/31 05:31:07;;;;;;;8.93;8.02;;;-3.70;73.90;;;;;;5117092;28;20058;-69
2020/12/31 05:33:41;;;;;;;8.75;7.95;;;-3.60;73.90;;;;;;5121694;28;20058;-70
2020/12/31 05:36:19;;;;;;;8.57;7.88;;;-3.70;73.50;;;;;;5120096;28;20067;-70
2020/12/31 05:38:57;;;;;;;8.55;7.85;;;-3.80;72.50;;;;;;5119165;28;20054;-70
2020/12/31 05:41:30;;;;;;;8.10;7.40;;;-4.00;73.00;;;;;;5119026;28;20054;-70
2020/12/31 05:44:05;;;;;;;8.57;7.88;;;-4.00;73.50;;;;;;5120123;28;20421;-70
2020/12/31 05:46:38;;;;;;;7.97;7.28;;;-4.00;74.30;;;;;;5122783;28;20082;-70
2020/12/31 05:49:10;;;;;;;8.32;7.63;;;-4.00;74.40;;;;;;5121556;28;20054;-71
2020/12/31 05:51:42;;;;;;;7.97;7.18;;;-4.10;74.60;;;;;;5101250;28;20047;-70
2020/12/31 05:54:15;;;;;;;8.23;7.53;;;-4.10;74.90;;;;;;5119320;28;20764;-71
2020/12/31 05:56:46;;;;;;;7.88;7.18;;;-4.10;74.90;;;;;;5102894;28;20047;-70
2020/12/31 05:59:22;;;;;;;8.27;7.40;;;-4.10;75.10;;;;;;5119082;28;20083;-71
2020/12/31 06:01:57;;;;;;;8.38;7.68;;;-4.20;74.80;;;;;;5119616;28;20074;-70
2020/12/31 06:04:45;;;;;;;8.00;7.30;;;-4.10;75.00;;;;;;5119554;28;20050;-70
2020/12/31 06:07:32;;;;;;;8.90;8.00;;;-4.00;74.50;;;;;;5119218;28;20176;-70
2020/12/31 06:10:06;;;;;;;8.23;7.50;;;-4.00;74.10;;;;;;5119267;28;20047;-71
2020/12/31 06:12:52;;;;;;;8.27;7.50;;;-3.90;73.40;;;;;;5141140;28;20075;-70
2020/12/31 06:15:28;;;;;;;9.23;7.93;;;-3.90;72.20;;;;;;5137652;28;20047;-70
2020/12/31 06:18:01;;;;;;;9.15;8.25;;;-4.00;72.50;;;;;;5140410;28;20710;-70
2020/12/31 06:20:38;;;;;;;9.48;8.57;;;-4.00;72.50;;;;;;5137243;28;20096;-71
2020/12/31 06:23:13;;;;;;;8.73;7.78;;;-4.00;72.40;;;;;;5138769;28;20042;-70
2020/12/31 06:25:46;;;;;;;9.38;8.43;;;-4.10;72.40;;;;;;5138171;28;20436;-71
2020/12/31 06:28:20;;;;;;;10.15;8.57;;;-4.10;72.50;;;;;;5137100;28;20453;-70
2020/12/31 06:30:53;;;;;;;9.55;8.65;;;-4.20;72.70;;;;;;5135367;28;20501;-70
2020/12/31 06:33:46;;;;;;;8.73;7.88;;;-4.20;72.50;;;;;;5137043;28;20195;-71
2020/12/31 06:36:18;;;;;;;8.07;7.28;;;-4.30;72.60;;;;;;5135995;28;20556;-70
2020/12/31 06:38:51;;;;;;;10.00;9.05;;;-4.30;72.60;;;;;;5136595;28;20774;-70
2020/12/31 06:41:35;;;;;;;8.88;7.97;;;-4.40;73.30;;;;;;5136102;28;20043;-70
2020/12/31 06:44:08;;;;;;;8.95;8.15;;;-4.40;73.30;;;;;;5136481;28;20074;-71
2020/12/31 06:46:41;;;;;;;8.50;7.70;;;-4.40;73.10;;;;;;5136328;28;20054;-71
2020/12/31 06:49:13;;;;;;;8.48;7.63;;;-4.40;73.40;;;;;;5136647;28;20110;-71
2020/12/31 06:51:45;;;;;;;11.02;8.63;;;-4.40;74.10;;;;;;5135568;28;20051;-71
2020/12/31 06:54:29;;;;;;;8.40;7.60;;;-4.40;75.70;;;;;;5136607;28;20051;-71
2020/12/31 06:57:00;;;;;;;8.60;7.80;;;-4.50;74.10;;;;;;5134595;28;20078;-71
2020/12/31 06:59:33;;;;;;;9.20;7.32;;;-4.60;73.50;;;;;;5134807;28;20074;-71
2020/12/31 07:02:11;;;;;;;8.85;8.05;;;-4.70;74.90;;;;;;5135820;28;20138;-70
2020/12/31 07:04:43;;;;;;;9.00;8.20;;;-4.70;76.10;;;;;;5135960;28;20131;-70
2020/12/31 07:07:20;;;;;;;8.88;7.97;;;-4.60;76.10;;;;;;5135224;28;20109;-70
2020/12/31 07:10:01;;;;;;;8.60;7.90;;;-4.60;73.40;;;;;;5136775;28;20046;-70
2020/12/31 07:12:39;;;;;;;8.75;7.97;;;-4.70;73.70;;;;;;5118587;28;20043;-70
2020/12/31 07:15:11;;;;;;;8.73;7.90;;;-4.70;74.30;;;;;;5081945;28;20067;-70
2020/12/31 07:17:45;;;;;;;9.02;8.23;;;-4.60;74.30;;;;;;5120028;28;20098;-69
2020/12/31 07:20:18;;;;;;;9.10;8.30;;;-4.60;74.20;;;;;;5118618;28;20044;-70
2020/12/31 07:22:51;;;;;;;8.65;7.95;;;-4.50;74.00;;;;;;5119123;28;20576;-69
2020/12/31 07:25:23;;;;;;;9.10;8.15;;;-4.50;74.00;;;;;;5118520;28;20055;-69
2020/12/31 07:27:54;;;;;;;9.02;8.15;;;-4.50;74.40;;;;;;5117112;28;20130;-69
2020/12/31 07:30:28;;;;;;;8.75;7.97;;;-4.50;74.30;;;;;;5099338;28;20047;-69
2020/12/31 07:33:09;;;;;;;9.40;8.60;;;-4.40;73.70;;;;;;5118860;28;20055;-69
2020/12/31 07:35:53;;;;;;;9.20;8.30;;;-4.40;74.10;;;;;;5120644;28;20043;-70
2020/12/31 07:38:26;;;;;;;8.50;7.70;;;-4.40;73.40;;;;;;5121396;28;20047;-69
2020/12/31 07:40:57;;;;;;;9.80;8.60;;;-4.50;73.30;;;;;;5120224;28;20580;-69
2020/12/31 07:43:30;;;;;;;10.70;9.60;;;-4.50;72.00;;;;;;5121429;28;20050;-69
2020/12/31 07:46:01;;;;;;;14.65;10.95;;;-4.40;71.40;;;;;;5102435;28;20039;-69
2020/12/31 07:48:33;;;;;;;13.18;10.93;;;-4.50;71.70;;;;;;5122268;28;20298;-69
2020/12/31 07:51:05;;;;;;;12.02;9.65;;;-4.50;71.40;;;;;;5119552;28;20047;-69
2020/12/31 07:53:37;;;;;;;26.80;16.17;;;-4.50;70.70;;;;;;5120804;28;20535;-69
2020/12/31 07:56:12;;;;;;;9.82;8.70;;;-4.50;70.70;;;;;;5119378;28;20051;-69
2020/12/31 07:58:45;;;;;;;8.90;8.00;;;-4.50;69.20;;;;;;5118746;28;20039;-69
2020/12/31 08:01:23;;;;;;;9.43;8.48;;;-4.70;69.20;;;;;;5117749;28;20081;-69
2020/12/31 08:03:54;;;;;;;9.02;8.13;;;-4.70;71.10;;;;;;5118557;28;20556;-69
2020/12/31 08:06:29;;;;;;;8.98;7.90;;;-4.70;73.20;;;;;;5118702;28;20043;-69
2020/12/31 08:09:01;;;;;;;7.95;7.22;;;-4.60;72.80;;;;;;5119559;28;20042;-69
2020/12/31 08:11:34;;;;;;;9.70;8.25;;;-4.50;73.20;;;;;;5117736;28;20570;-69
2020/12/31 08:14:06;;;;;;;9.35;8.35;;;-4.40;72.30;;;;;;5117264;28;20045;-69
2020/12/31 08:16:38;;;;;;;10.55;9.13;;;-4.30;71.90;;;;;;5117873;28;20050;-69
2020/12/31 08:19:12;;;;;;;8.88;8.07;;;-4.20;71.90;;;;;;5118510;28;20106;-70
2020/12/31 08:21:43;;;;;;;8.95;7.55;;;-4.10;71.60;;;;;;5115732;28;20075;-70
2020/12/31 08:24:18;;;;;;;9.43;8.30;;;-4.10;71.30;;;;;;5115209;28;20518;-70
2020/12/31 08:26:57;;;;;;;9.15;8.25;;;-4.00;71.10;;;;;;5114276;28;20047;-70
2020/12/31 08:29:32;;;;;;;9.57;8.30;;;-4.00;71.40;;;;;;5118880;28;20115;-71
2020/12/31 08:32:09;;;;;;;9.55;8.65;;;-3.90;71.80;;;;;;5115716;28;20094;-70
2020/12/31 08:34:43;;;;;;;9.05;8.15;;;-3.80;71.40;;;;;;5119706;28;20043;-70
2020/12/31 08:37:15;;;;;;;9.65;8.65;;;-3.80;70.10;;;;;;5118737;28;20055;-70
2020/12/31 08:39:53;;;;;;;9.38;8.20;;;-3.90;70.30;;;;;;5116169;28;20051;-70
2020/12/31 08:42:25;;;;;;;9.20;7.97;;;-3.90;70.70;;;;;;5118029;28;20700;-71
2020/12/31 08:44:56;;;;;;;9.18;8.20;;;-3.80;70.10;;;;;;5135383;28;20682;-70
2020/12/31 08:47:29;;;;;;;8.60;7.70;;;-3.70;70.50;;;;;;5133340;28;20085;-70
2020/12/31 08:50:01;;;;;;;9.45;7.65;;;-3.70;70.40;;;;;;5138641;28;20849;-71
2020/12/31 08:52:32;;;;;;;7.32;6.57;;;-3.60;71.20;;;;;;5120663;28;20046;-70
2020/12/31 08:55:09;;;;;;;8.10;7.30;;;-3.50;71.20;;;;;;5117198;28;20050;-76
2020/12/31 08:57:40;;;;;;;8.40;7.60;;;-3.50;70.90;;;;;;5117717;28;20078;-71
2020/12/31 09:00:12;;;;;;;9.07;8.27;;;-3.40;69.50;;;;;;5119939;28;20054;-71
2020/12/31 09:02:52;;;;;;;9.27;8.07;;;-3.50;68.00;;;;;;5122212;28;20098;-72
2020/12/31 09:05:24;;;;;;;7.35;6.65;;;-3.40;69.50;;;;;;5120574;28;20111;-74
2020/12/31 09:08:06;;;;;;;9.75;7.75;;;-3.40;70.00;;;;;;5121254;28;20047;-72
2020/12/31 09:10:38;;;;;;;7.95;7.25;;;-3.30;70.50;;;;;;5119235;28;20144;-71
2020/12/31 09:13:18;;;;;;;8.35;7.60;;;-3.20;70.50;;;;;;5121943;28;20035;-71
2020/12/31 09:16:06;;;;;;;;;;;-3.20;70.70;;;;;;5103167;28;20051;-72
2020/12/31 09:18:41;;;;;;;9.05;8.15;;;-3.30;70.50;;;;;;5103016;28;20309;-72
2020/12/31 09:21:13;;;;;;;7.88;7.07;;;-3.20;70.70;;;;;;5119786;28;20051;-71
2020/12/31 09:23:44;;;;;;;8.52;7.72;;;-3.10;71.00;;;;;;5122651;28;20386;-71
2020/12/31 09:26:28;;;;;;;8.98;6.97;;;-2.90;70.80;;;;;;5102389;28;20039;-71
2020/12/31 09:28:59;;;;;;;10.50;7.85;;;-2.80;70.10;;;;;;5119064;28;20141;-72
2020/12/31 09:31:35;;;;;;;10.38;8.32;;;-2.80;69.10;;;;;;5120528;28;20051;-71
2020/12/31 09:34:07;;;;;;;8.38;7.57;;;-3.00;67.30;;;;;;5118288;28;20094;-72
2020/12/31 09:36:39;;;;;;;8.68;7.75;;;-3.00;68.90;;;;;;5117924;28;20047;-71
2020/12/31 09:39:10;;;;;;;8.68;7.50;;;-3.00;68.90;;;;;;5117810;28;20132;-71
2020/12/31 09:41:42;;;;;;;8.38;7.57;;;-2.80;69.60;;;;;;5101575;28;20051;-71
2020/12/31 09:44:13;;;;;;;7.90;7.20;;;-2.60;68.70;;;;;;5109446;28;20078;-71
2020/12/31 09:46:44;;;;;;;9.15;7.93;;;-2.50;69.10;;;;;;5116575;28;20043;-71
2020/12/31 09:49:16;;;;;;;8.82;7.93;;;-2.40;69.10;;;;;;5104618;28;20051;-71
2020/12/31 09:51:47;;;;;;;11.73;8.02;;;-2.30;68.50;;;;;;5120414;28;20090;-71
2020/12/31 09:54:19;;;;;;;9.50;8.48;;;-2.20;68.10;;;;;;5123251;28;20058;-72
2020/12/31 09:56:51;;;;;;;9.48;8.43;;;-2.00;68.00;;;;;;5117923;28;20121;-72
2020/12/31 09:59:22;;;;;;;10.23;8.45;;;-1.90;67.40;;;;;;5099867;28;20517;-72
2020/12/31 10:01:54;;;;;;;13.30;10.27;;;-2.00;67.70;;;;;;5117681;28;20038;-73
2020/12/31 10:04:25;;;;;;;16.65;11.30;;;-2.20;66.30;;;;;;5121788;28;20046;-72
2020/12/31 10:06:56;;;;;;;14.10;11.68;;;-2.40;67.30;;;;;;5120733;28;20101;-72
2020/12/31 10:09:28;;;;;;;13.00;10.73;;;-2.50;68.00;;;;;;5118968;28;20575;-72
2020/12/31 10:11:59;;;;;;;11.75;9.93;;;-2.50;67.90;;;;;;5121086;28;20046;-72
2020/12/31 10:14:31;;;;;;;11.80;10.60;;;-2.50;68.70;;;;;;5120977;28;20039;-72
2020/12/31 10:17:02;;;;;;;12.23;10.02;;;-2.40;68.10;;;;;;5119495;28;20382;-71
2020/12/31 10:19:34;;;;;;;13.52;11.48;;;-2.30;68.20;;;;;;5121576;28;20039;-71
2020/12/31 10:22:08;;;;;;;13.32;11.00;;;-2.20;68.00;;;;;;5119884;28;20497;-71
2020/12/31 10:24:40;;;;;;;12.02;10.25;;;-2.00;68.00;;;;;;5121583;28;20051;-72
2020/12/31 10:27:11;;;;;;;13.80;10.13;;;-1.90;68.20;;;;;;5121691;28;20043;-71
2020/12/31 10:29:43;;;;;;;14.15;10.63;;;-2.00;67.90;;;;;;5119209;28;20104;-71
2020/12/31 10:32:15;;;;;;;13.15;10.85;;;-2.20;68.30;;;;;;5120145;28;20511;-72
2020/12/31 10:34:46;;;;;;;11.90;10.32;;;-2.20;68.70;;;;;;5121871;28;20075;-71
2020/12/31 10:37:17;;;;;;;11.80;10.27;;;-2.10;69.50;;;;;;5120449;28;20440;-72
2020/12/31 10:39:49;;;;;;;10.85;9.75;;;-2.00;69.50;;;;;;5115005;28;20071;-73
2020/12/31 10:42:20;;;;;;;12.18;10.20;;;-1.80;69.70;;;;;;5117952;28;21490;-72
2020/12/31 10:44:52;;;;;;;12.45;10.40;;;-1.60;69.60;;;;;;5104037;28;20047;-72
2020/12/31 10:47:23;;;;;;;13.18;10.18;;;-1.70;69.30;;;;;;5121875;28;20044;-73
2020/12/31 10:49:55;;;;;;;12.60;10.38;;;-1.70;68.50;;;;;;5120090;28;20063;-72
2020/12/31 10:52:26;;;;;;;14.98;10.75;;;-1.70;68.30;;;;;;5117777;28;20067;-71
2020/12/31 10:54:57;;;;;;;15.50;11.82;;;-1.80;68.10;;;;;;5104472;28;20047;-72
2020/12/31 10:57:29;;;;;;;14.40;11.25;;;-1.80;68.40;;;;;;5118850;28;20142;-72
2020/12/31 11:00:00;;;;;;;13.27;11.00;;;-1.80;67.90;;;;;;5119379;28;20039;-70
2020/12/31 11:02:32;;;;;;;17.75;11.13;;;-2.00;68.70;;;;;;5119536;28;20057;-69
2020/12/31 11:05:05;;;;;;;14.52;10.80;;;-2.10;69.60;;;;;;5119208;28;20039;-71
2020/12/31 11:07:37;;;;;;;13.13;9.95;;;-2.10;70.00;;;;;;5120681;28;20047;-72
2020/12/31 11:10:08;;;;;;;12.57;9.23;;;-1.90;70.50;;;;;;5102892;28;20121;-70
2020/12/31 11:12:40;;;;;;;10.75;9.65;;;-1.70;70.50;;;;;;5122378;28;20127;-69
2020/12/31 11:15:11;;;;;;;10.65;9.55;;;-1.50;70.60;;;;;;5119333;28;20520;-71
2020/12/31 11:17:43;;;;;;;9.60;8.68;;;-1.30;70.30;;;;;;5120936;28;20286;-73
2020/12/31 11:20:15;;;;;;;10.10;8.55;;;-1.20;70.40;;;;;;5118934;28;20046;-69
2020/12/31 11:22:49;;;;;;;10.75;9.45;;;-1.00;70.00;;;;;;5123185;28;20457;-73
2020/12/31 11:25:20;;;;;;;10.32;9.23;;;-0.80;69.30;;;;;;5122597;28;20047;-70
2020/12/31 11:27:52;;;;;;;10.27;9.27;;;-0.60;69.00;;;;;;5124831;28;20456;-69
2020/12/31 11:30:23;;;;;;;10.07;9.15;;;-0.50;68.40;;;;;;5074101;28;20046;-72
2020/12/31 11:32:55;;;;;;;15.27;12.05;;;-0.30;69.70;;;;;;5122975;28;20038;-69
2020/12/31 11:35:29;;;;;;;18.88;14.18;;;-0.10;68.00;;;;;;5105391;28;20039;-69
2020/12/31 11:38:00;;;;;;;17.42;12.48;;;0.10;67.90;;;;;;5122291;28;20114;-74
2020/12/31 11:40:32;;;;;;;15.27;12.02;;;0.30;66.80;;;;;;5123649;28;20038;-71
2020/12/31 11:43:03;;;;;;;13.75;11.80;;;0.40;67.00;;;;;;5122715;28;20126;-72
2020/12/31 11:45:35;;;;;;;15.10;12.00;;;0.50;66.00;;;;;;5125761;28;20055;-71
2020/12/31 11:48:07;;;;;;;15.13;12.18;;;0.60;65.30;;;;;;5123289;28;20130;-70
2020/12/31 11:50:38;;;;;;;15.68;11.65;;;0.70;66.20;;;;;;5125265;28;20043;-72
2020/12/31 11:53:10;;;;;;;14.65;11.88;;;0.90;63.30;;;;;;5124542;28;20641;-71
2020/12/31 11:55:41;;;;;;;14.88;11.63;;;0.90;65.00;;;;;;5124454;28;20079;-71
2020/12/31 11:58:13;;;;;;;14.07;12.57;;;1.10;65.30;;;;;;5121590;28;20043;-70
2020/12/31 12:00:45;;;;;;;14.50;12.05;;;1.30;65.10;;;;;;5121351;28;20110;-69
2020/12/31 12:03:16;;;;;;;14.35;12.80;;;1.40;62.80;;;;;;5121798;28;20070;-71
2020/12/31 12:05:51;;;;;;;13.85;12.43;;;1.60;63.10;;;;;;5117702;28;20036;-70
2020/12/31 12:08:28;;;;;;;13.35;11.95;;;1.70;63.50;;;;;;5120761;28;20098;-69
2020/12/31 12:10:59;;;;;;;16.38;13.73;;;1.80;60.80;;;;;;5117366;28;20051;-70
2020/12/31 12:13:31;;;;;;;16.17;13.55;;;1.90;61.90;;;;;;5119129;28;20089;-70
2020/12/31 12:16:03;;;;;;;15.85;13.98;;;2.00;62.50;;;;;;5099205;29;20492;-73
2020/12/31 12:18:35;;;;;;;17.70;14.02;;;2.10;61.60;;;;;;5122059;28;20051;-71
2020/12/31 12:21:17;;;;;;;16.00;13.52;;;2.20;61.80;;;;;;5102880;28;20052;-70
2020/12/31 12:23:50;;;;;;;15.30;12.55;;;2.30;60.20;;;;;;5120708;28;20047;-72
2020/12/31 12:26:21;;;;;;;17.65;14.32;;;2.30;60.80;;;;;;5118699;28;20627;-72
2020/12/31 12:28:53;;;;;;;15.20;13.55;;;2.30;62.00;;;;;;5103507;28;20060;-72
2020/12/31 12:31:30;;;;;;;15.90;14.23;;;2.40;60.10;;;;;;5120530;28;20050;-71
2020/12/31 12:34:05;;;;;;;17.13;13.73;;;2.30;61.90;;;;;;5121076;28;20194;-73
2020/12/31 12:36:37;;;;;;;15.02;13.30;;;2.30;61.20;;;;;;5123847;28;20477;-72
2020/12/31 12:39:09;;;;;;;13.90;12.50;;;2.20;61.50;;;;;;5104586;28;20070;-73
2020/12/31 12:41:40;;;;;;;14.75;13.20;;;2.20;60.40;;;;;;5123652;28;20044;-72
2020/12/31 12:44:12;;;;;;;15.35;13.18;;;2.10;59.40;;;;;;5120547;28;20047;-71
2020/12/31 12:46:43;;;;;;;13.90;12.50;;;2.10;59.40;;;;;;5103186;28;20727;-71
2020/12/31 12:49:15;;;;;;;14.80;13.30;;;2.00;60.40;;;;;;5102828;28;20047;-69
2020/12/31 12:51:46;;;;;;;15.43;13.80;;;1.90;60.90;;;;;;5098061;28;20473;-70
2020/12/31 12:54:18;;;;;;;16.05;13.57;;;1.90;60.00;;;;;;5118230;28;20130;-69
2020/12/31 12:56:51;;;;;;;17.02;13.55;;;1.90;60.70;;;;;;5117917;28;20058;-70
2020/12/31 12:59:22;;;;;;;14.50;13.00;;;1.80;60.50;;;;;;5121392;28;20458;-70
2020/12/31 13:01:53;;;;;;;15.60;13.45;;;1.80;60.00;;;;;;5100674;28;20039;-69
2020/12/31 13:04:25;;;;;;;15.63;13.80;;;1.80;61.40;;;;;;5120929;28;20051;-70
2020/12/31 13:06:56;;;;;;;14.38;12.85;;;1.80;61.20;;;;;;5120322;28;20043;-72